»·PEaware :: N378L KSNA-KAVX

N378L :: KSNA-KAVX

FLIGHT INFORMATION

Flight Status: Arrived
Operator: Privately registered:
United States
More flights under this callsign
Pilot: Wilver N. (25840)
Aircraft: CESSNA 172 SKYHAWK
(C172)
More flights by this aircraft type
Origin: KSNA John Wayne-Orange Co
United States
Destination: KAVX Catalina
United States
More flights between these airports :: More routes between these airports
Route: SLI V21 SXC
File this flight plan on PilotEdge
Remarks:
Altitude:
(Current/Filed)
4,000ft
Speed:
(Current/Filed)
110kts
Departed: 22-Feb-21 06:20 PM
Arrived: 22-Feb-21 06:58 PM
Distance/Time
Traveled:
32nm/0:38
Distance/Time
To Go:
Arrived

Flight Plot

Page will automatically refresh every two minutes.


Map Options




Map Legend


Flown Route
Filed Route
Departure Airport
Arrival Airport
Navaid (VOR, NDB)
Fix

Horizontal Profiles

Position Reports

Time Latitude Longitude Heading Altitude Ground
Speed
22-Feb-21 17:57 33.676205 -117.871104 212 60ft 0kts
22-Feb-21 17:58 33.676205 -117.871104 212 60ft 0kts
22-Feb-21 17:59 33.676205 -117.871104 212 60ft 0kts
22-Feb-21 18:00 33.676205 -117.871104 212 60ft 0kts
22-Feb-21 18:01 33.676205 -117.871104 212 60ft 0kts
22-Feb-21 18:02 33.676205 -117.871104 212 60ft 0kts
22-Feb-21 18:03 33.676205 -117.871104 212 60ft 0kts
22-Feb-21 18:04 33.676205 -117.871104 212 60ft 0kts
22-Feb-21 18:05 33.676205 -117.871104 212 60ft 0kts
22-Feb-21 18:06 33.676205 -117.871104 212 60ft 0kts
22-Feb-21 18:07 33.676205 -117.871104 212 60ft 0kts
22-Feb-21 18:08 33.676205 -117.871104 212 60ft 0kts
22-Feb-21 18:09 33.676205 -117.871104 212 60ft 0kts
22-Feb-21 18:10 33.676205 -117.871104 212 60ft 0kts
22-Feb-21 18:11 33.676205 -117.871104 212 60ft 0kts
22-Feb-21 18:12 33.676205 -117.871104 212 60ft 0kts
22-Feb-21 18:13 33.675839 -117.870742 124 60ft 1kts
22-Feb-21 18:14 33.678890 -117.868300 27 60ft 12kts
22-Feb-21 18:15 33.681742 -117.866739 100 60ft 0kts
22-Feb-21 18:16 33.681742 -117.866739 100 60ft 0kts
22-Feb-21 18:17 33.681266 -117.866527 125 60ft 8kts
22-Feb-21 18:18 33.679525 -117.866422 207 60ft 36kts
22-Feb-21 18:19 33.663044 -117.881111 237 679ft 88kts
22-Feb-21 18:20 33.651828 -117.903380 236 1651ft 75kts
22-Feb-21 18:21 33.638121 -117.924725 239 2425ft 80kts
22-Feb-21 18:22 33.627506 -117.949079 234 3155ft 87kts
22-Feb-21 18:23 33.613208 -117.972295 229 3867ft 90kts
22-Feb-21 18:24 33.598200 -118.002120 250 3915ft 113kts
22-Feb-21 18:25 33.589133 -118.039005 254 3914ft 116kts
22-Feb-21 18:26 33.580034 -118.076531 254 3914ft 117kts
22-Feb-21 18:27 33.569022 -118.113247 250 3914ft 117kts
22-Feb-21 18:28 33.557809 -118.149811 250 3914ft 117kts
22-Feb-21 18:29 33.546564 -118.186467 250 3914ft 117kts
22-Feb-21 18:30 33.535349 -118.223026 250 3914ft 117kts
22-Feb-21 18:31 33.516586 -118.251877 198 3913ft 116kts
22-Feb-21 18:32 33.484859 -118.260190 192 3914ft 117kts
22-Feb-21 18:33 33.452989 -118.268172 192 3914ft 117kts
22-Feb-21 18:34 33.426965 -118.285106 263 3885ft 116kts
22-Feb-21 18:35 33.424296 -118.317991 236 3456ft 92kts
22-Feb-21 18:36 33.411012 -118.340660 243 3292ft 81kts
22-Feb-21 18:37 33.399593 -118.367150 243 3290ft 92kts
22-Feb-21 18:38 33.387784 -118.394546 243 3290ft 92kts
22-Feb-21 18:39 33.375759 -118.421543 242 3290ft 92kts
22-Feb-21 18:40 33.363603 -118.448569 242 3290ft 92kts
22-Feb-21 18:41 33.343525 -118.457705 141 3286ft 91kts
22-Feb-21 18:42 33.353135 -118.439720 7 3290ft 90kts
22-Feb-21 18:43 33.378331 -118.437518 4 3290ft 91kts
22-Feb-21 18:44 33.403729 -118.435651 3 3291ft 93kts
22-Feb-21 18:45 33.431028 -118.434061 3 3290ft 101kts
22-Feb-21 18:46 33.459591 -118.432380 3 3290ft 103kts
22-Feb-21 18:47 33.488413 -118.430676 3 3290ft 104kts
22-Feb-21 18:48 33.517222 -118.428968 3 3290ft 104kts
22-Feb-21 18:49 33.545237 -118.423907 50 3291ft 103kts
22-Feb-21 18:50 33.530410 -118.406872 189 3286ft 97kts
22-Feb-21 18:51 33.507635 -118.406838 167 3293ft 88kts
22-Feb-21 18:52 33.481748 -118.404417 187 3288ft 94kts
22-Feb-21 18:53 33.458863 -118.407595 186 3288ft 77kts
22-Feb-21 18:54 33.445606 -118.388713 117 3291ft 82kts
22-Feb-21 18:55 33.425667 -118.390395 220 3067ft 98kts
22-Feb-21 18:56 33.407880 -118.410887 234 1549ft 74kts
22-Feb-21 18:58 33.404871 -118.415154 213 1544ft 0kts
22-Feb-21 18:59 33.404871 -118.415154 213 1544ft 0kts
22-Feb-21 19:00 33.404870 -118.415155 207 1544ft 0kts
22-Feb-21 19:01 33.404870 -118.415155 207 1544ft 0kts
22-Feb-21 19:02 33.404870 -118.415155 207 1544ft 0kts
22-Feb-21 19:03 33.404870 -118.415155 207 1544ft 0kts
22-Feb-21 19:04 33.404870 -118.415155 207 1544ft 0kts
22-Feb-21 19:05 33.404870 -118.415155 207 1544ft 0kts
22-Feb-21 19:06 33.404870 -118.415155 207 1544ft 0kts
22-Feb-21 19:07 33.404870 -118.415155 207 1544ft 0kts
22-Feb-21 19:08 33.404870 -118.415155 207 1544ft 0kts
22-Feb-21 19:09 33.404870 -118.415155 207 1544ft 0kts
22-Feb-21 19:10 33.404870 -118.415155 207 1544ft 0kts
22-Feb-21 19:11 33.404870 -118.415155 207 1544ft 0kts
22-Feb-21 19:12 33.404870 -118.415155 207 1544ft 0kts

Navigation Log

Ident Type
Flight plan parsing failed, navigation log unavailable